Terminal Aerodrome Forecast
Issued by NWS

Home | Current Version | Previous Version | Text Only | Print | Product List | Glossary On
Versions: 1 2 3 4 5 6 7 8 9 10 11 12 13 14 15
000
FTUS42 KFFC 211700
TAFRYY
TAF
KRYY 211731Z 2118/2218 29010KT P6SM SCT050
     FM220000 27003KT P6SM SCT100
     FM220600 30005KT P6SM SCT025 SCT050
     FM221000 32003KT P6SM SCT150
     FM221600 34008KT P6SM FEW250=

USA.gov is the U.S. government's official web portal to all federal, state and local government web resources and services.